sensor_id;sensor_type;location;lat;lon;timestamp;temperature;humidity
23081;DHT22;11708;50.570;8.532;2022-12-07T00:01:12;2.60;99.90
23081;DHT22;11708;50.570;8.532;2022-12-07T00:03:38;2.70;99.90
23081;DHT22;11708;50.570;8.532;2022-12-07T00:06:06;2.80;99.90
23081;DHT22;11708;50.570;8.532;2022-12-07T00:08:32;2.80;99.90
23081;DHT22;11708;50.570;8.532;2022-12-07T00:11:13;2.80;99.90
23081;DHT22;11708;50.570;8.532;2022-12-07T00:13:40;2.70;99.90
23081;DHT22;11708;50.570;8.532;2022-12-07T00:16:14;2.80;99.90
23081;DHT22;11708;50.570;8.532;2022-12-07T00:18:40;2.80;99.90
23081;DHT22;11708;50.570;8.532;2022-12-07T00:21:17;2.70;99.90
23081;DHT22;11708;50.570;8.532;2022-12-07T00:23:45;2.80;99.90
23081;DHT22;11708;50.570;8.532;2022-12-07T00:26:22;2.80;99.90
23081;DHT22;11708;50.570;8.532;2022-12-07T00:28:50;2.80;99.90
23081;DHT22;11708;50.570;8.532;2022-12-07T00:31:17;2.90;99.90
23081;DHT22;11708;50.570;8.532;2022-12-07T00:33:47;2.90;99.90
23081;DHT22;11708;50.570;8.532;2022-12-07T00:36:15;3.00;99.90
23081;DHT22;11708;50.570;8.532;2022-12-07T00:38:42;3.00;99.90
23081;DHT22;11708;50.570;8.532;2022-12-07T00:41:13;3.00;99.90
23081;DHT22;11708;50.570;8.532;2022-12-07T00:43:41;3.10;99.90
23081;DHT22;11708;50.570;8.532;2022-12-07T00:46:07;3.10;99.90
23081;DHT22;11708;50.570;8.532;2022-12-07T00:48:32;3.00;99.90
23081;DHT22;11708;50.570;8.532;2022-12-07T00:50:58;3.00;99.90
23081;DHT22;11708;50.570;8.532;2022-12-07T00:53:24;3.00;99.90
23081;DHT22;11708;50.570;8.532;2022-12-07T00:55:50;3.00;99.90
23081;DHT22;11708;50.570;8.532;2022-12-07T00:58:16;3.00;99.90
23081;DHT22;11708;50.570;8.532;2022-12-07T01:00:47;3.00;99.90
23081;DHT22;11708;50.570;8.532;2022-12-07T01:03:14;3.00;99.90
23081;DHT22;11708;50.570;8.532;2022-12-07T01:05:49;3.00;99.90
23081;DHT22;11708;50.570;8.532;2022-12-07T01:08:15;3.10;99.90
23081;DHT22;11708;50.570;8.532;2022-12-07T01:10:40;3.10;99.90
23081;DHT22;11708;50.570;8.532;2022-12-07T01:13:06;3.10;99.90
23081;DHT22;11708;50.570;8.532;2022-12-07T01:15:31;3.20;99.90
23081;DHT22;11708;50.570;8.532;2022-12-07T01:17:57;3.20;99.90
23081;DHT22;11708;50.570;8.532;2022-12-07T01:20:22;3.30;99.90
23081;DHT22;11708;50.570;8.532;2022-12-07T01:22:48;3.30;99.90
23081;DHT22;11708;50.570;8.532;2022-12-07T01:30:07;3.40;99.90
23081;DHT22;11708;50.570;8.532;2022-12-07T01:32:33;3.50;99.90
23081;DHT22;11708;50.570;8.532;2022-12-07T01:34:59;3.50;99.90
23081;DHT22;11708;50.570;8.532;2022-12-07T01:37:32;3.50;99.90
23081;DHT22;11708;50.570;8.532;2022-12-07T01:42:24;3.60;99.90
23081;DHT22;11708;50.570;8.532;2022-12-07T01:47:51;3.60;99.90
23081;DHT22;11708;50.570;8.532;2022-12-07T01:50:18;3.70;99.90
23081;DHT22;11708;50.570;8.532;2022-12-07T01:52:49;3.60;99.90
23081;DHT22;11708;50.570;8.532;2022-12-07T01:55:16;3.70;99.90
23081;DHT22;11708;50.570;8.532;2022-12-07T01:57:47;3.70;99.90
23081;DHT22;11708;50.570;8.532;2022-12-07T02:00:14;3.70;99.90
23081;DHT22;11708;50.570;8.532;2022-12-07T02:02:56;3.70;99.90
23081;DHT22;11708;50.570;8.532;2022-12-07T02:05:24;3.70;99.90
23081;DHT22;11708;50.570;8.532;2022-12-07T02:07:53;3.70;99.90
23081;DHT22;11708;50.570;8.532;2022-12-07T02:13:13;3.70;99.90
23081;DHT22;11708;50.570;8.532;2022-12-07T02:18:37;3.70;99.90
23081;DHT22;11708;50.570;8.532;2022-12-07T02:24:18;3.80;99.90
23081;DHT22;11708;50.570;8.532;2022-12-07T02:30:00;3.40;99.90
23081;DHT22;11708;50.570;8.532;2022-12-07T02:38:31;3.80;99.90
23081;DHT22;11708;50.570;8.532;2022-12-07T02:41:13;3.80;99.90
23081;DHT22;11708;50.570;8.532;2022-12-07T02:43:45;3.90;99.90
23081;DHT22;11708;50.570;8.532;2022-12-07T02:46:15;3.80;99.90
23081;DHT22;11708;50.570;8.532;2022-12-07T02:48:43;3.70;99.90
23081;DHT22;11708;50.570;8.532;2022-12-07T02:51:09;3.80;99.90
23081;DHT22;11708;50.570;8.532;2022-12-07T02:53:40;3.80;99.90
23081;DHT22;11708;50.570;8.532;2022-12-07T02:59:17;3.70;99.90
23081;DHT22;11708;50.570;8.532;2022-12-07T03:10:53;3.70;99.90
23081;DHT22;11708;50.570;8.532;2022-12-07T03:13:46;3.70;99.90
23081;DHT22;11708;50.570;8.532;2022-12-07T03:16:20;3.70;99.90
23081;DHT22;11708;50.570;8.532;2022-12-07T03:19:11;3.70;99.90
23081;DHT22;11708;50.570;8.532;2022-12-07T03:21:51;3.70;99.90
23081;DHT22;11708;50.570;8.532;2022-12-07T03:24:21;3.70;99.90
23081;DHT22;11708;50.570;8.532;2022-12-07T03:26:50;3.70;99.90
23081;DHT22;11708;50.570;8.532;2022-12-07T03:29:28;3.70;99.90
23081;DHT22;11708;50.570;8.532;2022-12-07T03:32:16;3.80;99.90
23081;DHT22;11708;50.570;8.532;2022-12-07T03:34:52;3.80;99.90
23081;DHT22;11708;50.570;8.532;2022-12-07T03:37:40;3.70;99.90
23081;DHT22;11708;50.570;8.532;2022-12-07T03:40:13;3.80;99.90
23081;DHT22;11708;50.570;8.532;2022-12-07T03:42:43;3.80;99.90
23081;DHT22;11708;50.570;8.532;2022-12-07T03:45:09;3.70;99.90
23081;DHT22;11708;50.570;8.532;2022-12-07T03:47:46;3.70;99.90
23081;DHT22;11708;50.570;8.532;2022-12-07T03:50:31;3.70;99.90
23081;DHT22;11708;50.570;8.532;2022-12-07T03:53:08;3.70;99.90
23081;DHT22;11708;50.570;8.532;2022-12-07T03:55:37;3.70;99.90
23081;DHT22;11708;50.570;8.532;2022-12-07T03:58:09;3.80;99.90
23081;DHT22;11708;50.570;8.532;2022-12-07T04:00:41;3.80;99.90
23081;DHT22;11708;50.570;8.532;2022-12-07T04:03:06;3.80;99.90
23081;DHT22;11708;50.570;8.532;2022-12-07T04:05:32;3.80;99.90
23081;DHT22;11708;50.570;8.532;2022-12-07T04:07:58;3.80;99.90
23081;DHT22;11708;50.570;8.532;2022-12-07T04:10:23;3.80;99.90
23081;DHT22;11708;50.570;8.532;2022-12-07T04:12:49;3.80;99.90
23081;DHT22;11708;50.570;8.532;2022-12-07T04:15:14;3.80;99.90
23081;DHT22;11708;50.570;8.532;2022-12-07T04:17:40;3.80;99.90
23081;DHT22;11708;50.570;8.532;2022-12-07T04:20:06;3.80;99.90
23081;DHT22;11708;50.570;8.532;2022-12-07T04:22:32;3.90;99.90
23081;DHT22;11708;50.570;8.532;2022-12-07T04:24:58;3.80;99.90
23081;DHT22;11708;50.570;8.532;2022-12-07T04:27:23;3.80;99.90
23081;DHT22;11708;50.570;8.532;2022-12-07T04:29:52;3.80;99.90
23081;DHT22;11708;50.570;8.532;2022-12-07T04:32:18;3.80;99.90
23081;DHT22;11708;50.570;8.532;2022-12-07T04:34:44;3.80;99.90
23081;DHT22;11708;50.570;8.532;2022-12-07T04:37:09;3.80;99.90
23081;DHT22;11708;50.570;8.532;2022-12-07T04:39:36;3.80;99.90
23081;DHT22;11708;50.570;8.532;2022-12-07T04:42:02;3.80;99.90
23081;DHT22;11708;50.570;8.532;2022-12-07T04:44:28;4.80;99.90
23081;DHT22;11708;50.570;8.532;2022-12-07T04:46:54;3.80;99.90
23081;DHT22;11708;50.570;8.532;2022-12-07T04:49:20;3.80;99.90
23081;DHT22;11708;50.570;8.532;2022-12-07T04:51:46;3.90;99.90
23081;DHT22;11708;50.570;8.532;2022-12-07T04:54:13;3.90;99.90
23081;DHT22;11708;50.570;8.532;2022-12-07T04:56:39;3.90;99.90
23081;DHT22;11708;50.570;8.532;2022-12-07T04:59:05;3.90;99.90
23081;DHT22;11708;50.570;8.532;2022-12-07T05:01:31;3.90;99.90
23081;DHT22;11708;50.570;8.532;2022-12-07T05:03:57;3.90;99.90
23081;DHT22;11708;50.570;8.532;2022-12-07T05:06:32;3.90;99.90
23081;DHT22;11708;50.570;8.532;2022-12-07T05:08:57;4.00;99.90
23081;DHT22;11708;50.570;8.532;2022-12-07T05:11:23;3.90;99.90
23081;DHT22;11708;50.570;8.532;2022-12-07T05:14:19;4.00;99.90
23081;DHT22;11708;50.570;8.532;2022-12-07T05:16:47;4.00;99.90
23081;DHT22;11708;50.570;8.532;2022-12-07T05:19:17;4.00;99.90
23081;DHT22;11708;50.570;8.532;2022-12-07T05:21:43;4.00;99.90
23081;DHT22;11708;50.570;8.532;2022-12-07T05:24:10;4.10;99.90
23081;DHT22;11708;50.570;8.532;2022-12-07T05:29:02;4.00;99.90
23081;DHT22;11708;50.570;8.532;2022-12-07T05:31:28;4.10;99.90
23081;DHT22;11708;50.570;8.532;2022-12-07T05:36:24;4.10;99.90
23081;DHT22;11708;50.570;8.532;2022-12-07T05:38:50;4.10;99.90
23081;DHT22;11708;50.570;8.532;2022-12-07T05:41:19;4.10;99.90
23081;DHT22;11708;50.570;8.532;2022-12-07T05:44:04;4.10;99.90
23081;DHT22;11708;50.570;8.532;2022-12-07T05:46:30;4.10;99.90
23081;DHT22;11708;50.570;8.532;2022-12-07T05:48:56;4.10;99.90
23081;DHT22;11708;50.570;8.532;2022-12-07T05:51:22;4.10;99.90
23081;DHT22;11708;50.570;8.532;2022-12-07T05:53:47;4.10;99.90
23081;DHT22;11708;50.570;8.532;2022-12-07T05:56:13;4.10;99.90
23081;DHT22;11708;50.570;8.532;2022-12-07T06:01:23;4.10;99.90
23081;DHT22;11708;50.570;8.532;2022-12-07T06:03:49;4.20;99.90
23081;DHT22;11708;50.570;8.532;2022-12-07T06:06:15;4.20;99.90
23081;DHT22;11708;50.570;8.532;2022-12-07T06:08:41;4.20;99.90
23081;DHT22;11708;50.570;8.532;2022-12-07T06:11:06;4.20;99.90
23081;DHT22;11708;50.570;8.532;2022-12-07T06:13:50;4.20;99.90
23081;DHT22;11708;50.570;8.532;2022-12-07T06:16:16;4.20;99.90
23081;DHT22;11708;50.570;8.532;2022-12-07T06:18:41;4.10;99.90
23081;DHT22;11708;50.570;8.532;2022-12-07T06:21:07;4.20;99.90
23081;DHT22;11708;50.570;8.532;2022-12-07T06:23:32;4.20;99.90
23081;DHT22;11708;50.570;8.532;2022-12-07T06:25:58;4.20;99.90
23081;DHT22;11708;50.570;8.532;2022-12-07T06:28:24;4.10;99.90
23081;DHT22;11708;50.570;8.532;2022-12-07T06:30:57;4.20;99.90
23081;DHT22;11708;50.570;8.532;2022-12-07T06:33:39;4.20;99.90
23081;DHT22;11708;50.570;8.532;2022-12-07T06:36:04;4.30;99.90
23081;DHT22;11708;50.570;8.532;2022-12-07T06:38:30;4.20;99.90
23081;DHT22;11708;50.570;8.532;2022-12-07T06:40:55;4.20;99.90
23081;DHT22;11708;50.570;8.532;2022-12-07T06:43:21;4.20;99.90
23081;DHT22;11708;50.570;8.532;2022-12-07T06:45:46;4.20;99.90
23081;DHT22;11708;50.570;8.532;2022-12-07T06:48:12;3.90;99.90
23081;DHT22;11708;50.570;8.532;2022-12-07T06:50:37;4.20;99.90
23081;DHT22;11708;50.570;8.532;2022-12-07T06:53:03;4.20;99.90
23081;DHT22;11708;50.570;8.532;2022-12-07T06:55:29;4.20;99.90
23081;DHT22;11708;50.570;8.532;2022-12-07T06:57:54;4.10;99.90
23081;DHT22;11708;50.570;8.532;2022-12-07T07:00:20;4.70;99.90
23081;DHT22;11708;50.570;8.532;2022-12-07T07:02:48;4.00;99.90
23081;DHT22;11708;50.570;8.532;2022-12-07T07:05:13;4.00;99.90
23081;DHT22;11708;50.570;8.532;2022-12-07T07:07:39;4.00;99.90
23081;DHT22;11708;50.570;8.532;2022-12-07T07:10:05;3.90;99.90
23081;DHT22;11708;50.570;8.532;2022-12-07T07:12:31;3.90;99.90
23081;DHT22;11708;50.570;8.532;2022-12-07T07:14:56;3.90;99.90
23081;DHT22;11708;50.570;8.532;2022-12-07T07:17:22;3.90;99.90
23081;DHT22;11708;50.570;8.532;2022-12-07T07:19:48;3.90;99.90
23081;DHT22;11708;50.570;8.532;2022-12-07T07:22:16;3.90;99.90
23081;DHT22;11708;50.570;8.532;2022-12-07T07:24:42;3.90;99.90
23081;DHT22;11708;50.570;8.532;2022-12-07T07:29:33;3.90;99.90
23081;DHT22;11708;50.570;8.532;2022-12-07T07:31:59;3.80;99.90
23081;DHT22;11708;50.570;8.532;2022-12-07T07:34:25;3.80;99.90
23081;DHT22;11708;50.570;8.532;2022-12-07T07:36:50;3.90;99.90
23081;DHT22;11708;50.570;8.532;2022-12-07T07:39:16;3.80;99.90
23081;DHT22;11708;50.570;8.532;2022-12-07T07:41:42;3.80;99.90
23081;DHT22;11708;50.570;8.532;2022-12-07T07:44:07;3.80;99.90
23081;DHT22;11708;50.570;8.532;2022-12-07T07:46:33;3.80;99.90
23081;DHT22;11708;50.570;8.532;2022-12-07T07:48:58;3.80;99.90
23081;DHT22;11708;50.570;8.532;2022-12-07T07:51:27;3.80;99.90
23081;DHT22;11708;50.570;8.532;2022-12-07T07:53:53;3.80;99.90
23081;DHT22;11708;50.570;8.532;2022-12-07T07:56:19;3.80;99.90
23081;DHT22;11708;50.570;8.532;2022-12-07T07:58:44;3.80;99.90
23081;DHT22;11708;50.570;8.532;2022-12-07T08:01:10;3.80;99.90
23081;DHT22;11708;50.570;8.532;2022-12-07T08:03:36;3.80;99.90
23081;DHT22;11708;50.570;8.532;2022-12-07T08:06:03;3.80;99.90
23081;DHT22;11708;50.570;8.532;2022-12-07T08:08:29;3.40;99.90
23081;DHT22;11708;50.570;8.532;2022-12-07T08:10:58;3.80;99.90
23081;DHT22;11708;50.570;8.532;2022-12-07T08:13:26;3.80;99.90
23081;DHT22;11708;50.570;8.532;2022-12-07T08:18:18;3.80;99.90
23081;DHT22;11708;50.570;8.532;2022-12-07T08:20:43;3.70;99.90
23081;DHT22;11708;50.570;8.532;2022-12-07T08:23:10;3.70;99.90
23081;DHT22;11708;50.570;8.532;2022-12-07T08:25:36;3.70;99.90
23081;DHT22;11708;50.570;8.532;2022-12-07T08:28:02;3.70;99.90
23081;DHT22;11708;50.570;8.532;2022-12-07T08:30:28;3.70;99.90
23081;DHT22;11708;50.570;8.532;2022-12-07T08:32:55;3.70;99.90
23081;DHT22;11708;50.570;8.532;2022-12-07T08:35:22;3.70;99.90
23081;DHT22;11708;50.570;8.532;2022-12-07T08:37:48;3.80;99.90
23081;DHT22;11708;50.570;8.532;2022-12-07T08:40:15;3.80;99.90
23081;DHT22;11708;50.570;8.532;2022-12-07T08:42:51;3.80;99.90
23081;DHT22;11708;50.570;8.532;2022-12-07T08:45:18;3.90;99.90
23081;DHT22;11708;50.570;8.532;2022-12-07T08:47:55;3.90;99.90
23081;DHT22;11708;50.570;8.532;2022-12-07T08:50:23;3.90;99.90
23081;DHT22;11708;50.570;8.532;2022-12-07T08:52:52;4.00;99.90
23081;DHT22;11708;50.570;8.532;2022-12-07T08:55:19;3.80;99.90
23081;DHT22;11708;50.570;8.532;2022-12-07T08:57:45;4.10;99.90
23081;DHT22;11708;50.570;8.532;2022-12-07T09:00:11;4.10;99.90
23081;DHT22;11708;50.570;8.532;2022-12-07T09:02:37;4.10;99.90
23081;DHT22;11708;50.570;8.532;2022-12-07T09:07:30;4.20;99.90
23081;DHT22;11708;50.570;8.532;2022-12-07T09:12:23;4.40;99.90
23081;DHT22;11708;50.570;8.532;2022-12-07T09:14:48;4.50;99.90
23081;DHT22;11708;50.570;8.532;2022-12-07T09:17:14;4.50;99.90
23081;DHT22;11708;50.570;8.532;2022-12-07T09:22:07;4.30;99.90
23081;DHT22;11708;50.570;8.532;2022-12-07T09:26:59;4.60;99.90
23081;DHT22;11708;50.570;8.532;2022-12-07T09:29:24;4.60;99.90
23081;DHT22;11708;50.570;8.532;2022-12-07T09:31:51;4.60;99.90
23081;DHT22;11708;50.570;8.532;2022-12-07T09:34:16;4.70;99.90
23081;DHT22;11708;50.570;8.532;2022-12-07T09:36:42;4.80;99.90
23081;DHT22;11708;50.570;8.532;2022-12-07T09:39:08;4.70;99.90
23081;DHT22;11708;50.570;8.532;2022-12-07T09:41:38;4.70;99.90
23081;DHT22;11708;50.570;8.532;2022-12-07T09:44:06;4.60;99.90
23081;DHT22;11708;50.570;8.532;2022-12-07T09:46:40;4.80;99.90
23081;DHT22;11708;50.570;8.532;2022-12-07T09:49:14;4.90;99.90
23081;DHT22;11708;50.570;8.532;2022-12-07T09:51:58;5.80;99.90
23081;DHT22;11708;50.570;8.532;2022-12-07T09:54:27;5.20;99.90
23081;DHT22;11708;50.570;8.532;2022-12-07T09:56:54;5.30;99.90
23081;DHT22;11708;50.570;8.532;2022-12-07T09:59:25;5.30;99.90
23081;DHT22;11708;50.570;8.532;2022-12-07T10:01:51;5.60;99.90
23081;DHT22;11708;50.570;8.532;2022-12-07T10:04:22;5.20;99.90
23081;DHT22;11708;50.570;8.532;2022-12-07T10:06:49;5.20;99.90
23081;DHT22;11708;50.570;8.532;2022-12-07T10:09:18;5.20;99.90
23081;DHT22;11708;50.570;8.532;2022-12-07T10:12:08;5.20;99.90
23081;DHT22;11708;50.570;8.532;2022-12-07T10:15:00;5.10;99.90
23081;DHT22;11708;50.570;8.532;2022-12-07T10:17:38;5.20;99.90
23081;DHT22;11708;50.570;8.532;2022-12-07T10:22:38;5.20;99.90
23081;DHT22;11708;50.570;8.532;2022-12-07T10:25:19;5.20;99.90
23081;DHT22;11708;50.570;8.532;2022-12-07T10:28:18;5.20;99.90
23081;DHT22;11708;50.570;8.532;2022-12-07T10:31:03;5.40;99.90
23081;DHT22;11708;50.570;8.532;2022-12-07T10:33:55;5.70;99.90
23081;DHT22;11708;50.570;8.532;2022-12-07T10:36:38;6.00;99.90
23081;DHT22;11708;50.570;8.532;2022-12-07T10:39:14;6.40;99.90
23081;DHT22;11708;50.570;8.532;2022-12-07T10:41:53;6.30;99.90
23081;DHT22;11708;50.570;8.532;2022-12-07T10:44:25;6.50;99.90
23081;DHT22;11708;50.570;8.532;2022-12-07T10:55:33;6.40;99.90
23081;DHT22;11708;50.570;8.532;2022-12-07T11:09:02;6.00;99.90
23081;DHT22;11708;50.570;8.532;2022-12-07T11:11:47;6.00;99.90
23081;DHT22;11708;50.570;8.532;2022-12-07T11:14:34;6.00;99.90
23081;DHT22;11708;50.570;8.532;2022-12-07T11:17:07;6.00;99.90
23081;DHT22;11708;50.570;8.532;2022-12-07T11:26:15;6.80;99.90
23081;DHT22;11708;50.570;8.532;2022-12-07T11:34:09;6.80;99.90
23081;DHT22;11708;50.570;8.532;2022-12-07T11:36:47;6.70;99.90
23081;DHT22;11708;50.570;8.532;2022-12-07T11:41:49;6.50;99.90
23081;DHT22;11708;50.570;8.532;2022-12-07T11:44:26;6.50;99.90
23081;DHT22;11708;50.570;8.532;2022-12-07T11:47:07;6.40;99.90
23081;DHT22;11708;50.570;8.532;2022-12-07T11:49:51;6.10;99.90
23081;DHT22;11708;50.570;8.532;2022-12-07T11:52:25;6.20;99.90
23081;DHT22;11708;50.570;8.532;2022-12-07T11:54:53;6.30;99.90
23081;DHT22;11708;50.570;8.532;2022-12-07T11:57:50;6.20;99.90
23081;DHT22;11708;50.570;8.532;2022-12-07T12:00:17;6.10;99.90
23081;DHT22;11708;50.570;8.532;2022-12-07T12:02:59;6.10;99.90
23081;DHT22;11708;50.570;8.532;2022-12-07T12:05:26;6.20;99.90
23081;DHT22;11708;50.570;8.532;2022-12-07T12:08:22;6.50;99.90
23081;DHT22;11708;50.570;8.532;2022-12-07T12:19:16;7.60;99.90
23081;DHT22;11708;50.570;8.532;2022-12-07T12:21:45;7.40;99.90
23081;DHT22;11708;50.570;8.532;2022-12-07T12:24:19;7.30;99.90
23081;DHT22;11708;50.570;8.532;2022-12-07T12:26:55;7.10;99.90
23081;DHT22;11708;50.570;8.532;2022-12-07T12:29:31;7.00;99.90
23081;DHT22;11708;50.570;8.532;2022-12-07T12:32:08;6.90;99.90
23081;DHT22;11708;50.570;8.532;2022-12-07T12:42:53;6.40;99.90
23081;DHT22;11708;50.570;8.532;2022-12-07T12:45:27;6.20;99.90
23081;DHT22;11708;50.570;8.532;2022-12-07T12:50:43;6.20;99.90
23081;DHT22;11708;50.570;8.532;2022-12-07T12:53:27;6.50;99.90
23081;DHT22;11708;50.570;8.532;2022-12-07T12:58:45;6.70;99.90
23081;DHT22;11708;50.570;8.532;2022-12-07T13:01:36;6.60;99.90
23081;DHT22;11708;50.570;8.532;2022-12-07T13:04:18;6.50;99.90
23081;DHT22;11708;50.570;8.532;2022-12-07T13:06:47;6.40;99.90
23081;DHT22;11708;50.570;8.532;2022-12-07T13:09:42;6.10;99.90
23081;DHT22;11708;50.570;8.532;2022-12-07T13:12:16;6.40;99.90
23081;DHT22;11708;50.570;8.532;2022-12-07T13:14:56;7.20;99.90
23081;DHT22;11708;50.570;8.532;2022-12-07T13:19:59;6.50;99.90
23081;DHT22;11708;50.570;8.532;2022-12-07T13:25:07;6.50;99.90
23081;DHT22;11708;50.570;8.532;2022-12-07T13:27:34;6.80;99.90
23081;DHT22;11708;50.570;8.532;2022-12-07T13:30:12;6.50;99.90
23081;DHT22;11708;50.570;8.532;2022-12-07T13:32:42;6.50;99.90
23081;DHT22;11708;50.570;8.532;2022-12-07T13:35:29;6.40;99.90
23081;DHT22;11708;50.570;8.532;2022-12-07T13:37:55;6.30;99.90
23081;DHT22;11708;50.570;8.532;2022-12-07T13:40:22;6.20;99.90
23081;DHT22;11708;50.570;8.532;2022-12-07T13:42:47;6.10;99.90
23081;DHT22;11708;50.570;8.532;2022-12-07T13:45:28;6.00;99.90
23081;DHT22;11708;50.570;8.532;2022-12-07T13:48:43;6.00;99.90
23081;DHT22;11708;50.570;8.532;2022-12-07T13:51:34;5.90;99.90
23081;DHT22;11708;50.570;8.532;2022-12-07T13:54:12;5.90;99.90
23081;DHT22;11708;50.570;8.532;2022-12-07T13:56:38;5.90;99.90
23081;DHT22;11708;50.570;8.532;2022-12-07T13:59:19;5.60;99.90
23081;DHT22;11708;50.570;8.532;2022-12-07T14:01:48;5.80;99.90
23081;DHT22;11708;50.570;8.532;2022-12-07T14:04:33;5.80;99.90
23081;DHT22;11708;50.570;8.532;2022-12-07T14:06:59;5.80;99.90
23081;DHT22;11708;50.570;8.532;2022-12-07T14:09:28;5.70;99.90
23081;DHT22;11708;50.570;8.532;2022-12-07T14:11:56;5.70;99.90
23081;DHT22;11708;50.570;8.532;2022-12-07T14:14:25;5.60;99.90
23081;DHT22;11708;50.570;8.532;2022-12-07T14:17:17;5.70;99.90
23081;DHT22;11708;50.570;8.532;2022-12-07T14:19:56;5.60;99.90
23081;DHT22;11708;50.570;8.532;2022-12-07T14:22:32;5.60;99.90
23081;DHT22;11708;50.570;8.532;2022-12-07T14:25:20;5.50;99.90
23081;DHT22;11708;50.570;8.532;2022-12-07T14:27:51;5.50;99.90
23081;DHT22;11708;50.570;8.532;2022-12-07T14:30:20;5.50;99.90
23081;DHT22;11708;50.570;8.532;2022-12-07T14:32:50;5.40;99.90
23081;DHT22;11708;50.570;8.532;2022-12-07T14:35:18;5.40;99.90
23081;DHT22;11708;50.570;8.532;2022-12-07T14:37:46;5.40;99.90
23081;DHT22;11708;50.570;8.532;2022-12-07T14:40:18;5.40;99.90
23081;DHT22;11708;50.570;8.532;2022-12-07T14:42:45;5.30;99.90
23081;DHT22;11708;50.570;8.532;2022-12-07T14:45:18;5.30;99.90
23081;DHT22;11708;50.570;8.532;2022-12-07T14:47:46;5.30;99.90
23081;DHT22;11708;50.570;8.532;2022-12-07T14:50:17;5.30;99.90
23081;DHT22;11708;50.570;8.532;2022-12-07T14:52:57;5.40;99.90
23081;DHT22;11708;50.570;8.532;2022-12-07T14:55:31;5.20;99.90
23081;DHT22;11708;50.570;8.532;2022-12-07T14:57:57;5.20;99.90
23081;DHT22;11708;50.570;8.532;2022-12-07T15:00:25;5.20;99.90
23081;DHT22;11708;50.570;8.532;2022-12-07T15:02:51;5.20;99.90
23081;DHT22;11708;50.570;8.532;2022-12-07T15:05:17;5.30;99.90
23081;DHT22;11708;50.570;8.532;2022-12-07T15:07:44;5.30;99.90
23081;DHT22;11708;50.570;8.532;2022-12-07T15:10:29;5.40;99.90
23081;DHT22;11708;50.570;8.532;2022-12-07T15:13:00;5.30;99.90
23081;DHT22;11708;50.570;8.532;2022-12-07T15:15:47;5.40;99.90
23081;DHT22;11708;50.570;8.532;2022-12-07T15:18:13;5.30;99.90
23081;DHT22;11708;50.570;8.532;2022-12-07T15:20:43;5.30;99.90
23081;DHT22;11708;50.570;8.532;2022-12-07T15:23:10;5.20;99.90
23081;DHT22;11708;50.570;8.532;2022-12-07T15:25:36;5.20;99.90
23081;DHT22;11708;50.570;8.532;2022-12-07T15:28:01;5.20;99.90
23081;DHT22;11708;50.570;8.532;2022-12-07T15:30:27;5.10;99.90
23081;DHT22;11708;50.570;8.532;2022-12-07T15:32:53;5.10;99.90
23081;DHT22;11708;50.570;8.532;2022-12-07T15:35:19;5.00;99.90
23081;DHT22;11708;50.570;8.532;2022-12-07T15:37:45;5.00;99.90
23081;DHT22;11708;50.570;8.532;2022-12-07T15:40:11;4.90;99.90
23081;DHT22;11708;50.570;8.532;2022-12-07T15:42:39;4.90;99.90
23081;DHT22;11708;50.570;8.532;2022-12-07T15:45:06;4.90;99.90
23081;DHT22;11708;50.570;8.532;2022-12-07T15:47:34;4.80;99.90
23081;DHT22;11708;50.570;8.532;2022-12-07T15:50:05;4.90;99.90
23081;DHT22;11708;50.570;8.532;2022-12-07T15:52:32;5.40;99.90
23081;DHT22;11708;50.570;8.532;2022-12-07T15:55:01;4.80;99.90
23081;DHT22;11708;50.570;8.532;2022-12-07T15:57:32;4.80;99.90
23081;DHT22;11708;50.570;8.532;2022-12-07T15:59:58;4.70;99.90
23081;DHT22;11708;50.570;8.532;2022-12-07T16:02:24;4.80;99.90
23081;DHT22;11708;50.570;8.532;2022-12-07T16:04:50;4.80;99.90
23081;DHT22;11708;50.570;8.532;2022-12-07T16:07:16;4.70;99.90
23081;DHT22;11708;50.570;8.532;2022-12-07T16:09:43;4.80;99.90
23081;DHT22;11708;50.570;8.532;2022-12-07T16:12:10;4.80;99.90
23081;DHT22;11708;50.570;8.532;2022-12-07T16:14:36;4.80;99.90
23081;DHT22;11708;50.570;8.532;2022-12-07T16:17:03;4.70;99.90
23081;DHT22;11708;50.570;8.532;2022-12-07T16:19:30;4.70;99.90
23081;DHT22;11708;50.570;8.532;2022-12-07T16:21:56;4.70;99.90
23081;DHT22;11708;50.570;8.532;2022-12-07T16:24:21;4.70;99.90
23081;DHT22;11708;50.570;8.532;2022-12-07T16:26:48;4.60;99.90
23081;DHT22;11708;50.570;8.532;2022-12-07T16:29:14;5.00;99.90
23081;DHT22;11708;50.570;8.532;2022-12-07T16:31:40;4.60;99.90
23081;DHT22;11708;50.570;8.532;2022-12-07T16:34:07;4.70;99.90
23081;DHT22;11708;50.570;8.532;2022-12-07T16:36:32;4.60;99.90
23081;DHT22;11708;50.570;8.532;2022-12-07T16:39:01;4.60;99.90
23081;DHT22;11708;50.570;8.532;2022-12-07T16:41:27;4.50;99.90
23081;DHT22;11708;50.570;8.532;2022-12-07T16:43:53;4.50;99.90
23081;DHT22;11708;50.570;8.532;2022-12-07T16:46:19;4.50;99.90
23081;DHT22;11708;50.570;8.532;2022-12-07T16:48:44;4.50;99.90
23081;DHT22;11708;50.570;8.532;2022-12-07T16:51:12;4.50;99.90
23081;DHT22;11708;50.570;8.532;2022-12-07T16:53:40;4.50;99.90
23081;DHT22;11708;50.570;8.532;2022-12-07T16:56:11;4.50;99.90
23081;DHT22;11708;50.570;8.532;2022-12-07T16:58:37;4.50;99.90
23081;DHT22;11708;50.570;8.532;2022-12-07T17:01:19;4.50;99.90
23081;DHT22;11708;50.570;8.532;2022-12-07T17:03:46;4.50;99.90
23081;DHT22;11708;50.570;8.532;2022-12-07T17:06:19;4.50;99.90
23081;DHT22;11708;50.570;8.532;2022-12-07T17:08:45;4.40;99.90
23081;DHT22;11708;50.570;8.532;2022-12-07T17:11:17;4.40;99.90
23081;DHT22;11708;50.570;8.532;2022-12-07T17:13:43;4.40;99.90
23081;DHT22;11708;50.570;8.532;2022-12-07T17:18:54;4.40;99.90
23081;DHT22;11708;50.570;8.532;2022-12-07T17:21:20;4.40;99.90
23081;DHT22;11708;50.570;8.532;2022-12-07T17:23:46;4.40;99.90
23081;DHT22;11708;50.570;8.532;2022-12-07T17:26:15;4.40;99.90
23081;DHT22;11708;50.570;8.532;2022-12-07T17:28:44;4.40;99.90
23081;DHT22;11708;50.570;8.532;2022-12-07T17:31:12;4.40;99.90
23081;DHT22;11708;50.570;8.532;2022-12-07T17:33:38;4.30;99.90
23081;DHT22;11708;50.570;8.532;2022-12-07T17:36:18;4.30;99.90
23081;DHT22;11708;50.570;8.532;2022-12-07T17:38:45;4.30;99.90
23081;DHT22;11708;50.570;8.532;2022-12-07T17:41:12;4.20;99.90
23081;DHT22;11708;50.570;8.532;2022-12-07T17:43:58;4.20;99.90
23081;DHT22;11708;50.570;8.532;2022-12-07T17:46:23;4.20;99.90
23081;DHT22;11708;50.570;8.532;2022-12-07T17:48:50;4.20;99.90
23081;DHT22;11708;50.570;8.532;2022-12-07T17:51:18;4.10;99.90
23081;DHT22;11708;50.570;8.532;2022-12-07T17:54:02;4.30;99.90
23081;DHT22;11708;50.570;8.532;2022-12-07T17:56:28;4.10;99.90
23081;DHT22;11708;50.570;8.532;2022-12-07T17:58:53;4.10;99.90
23081;DHT22;11708;50.570;8.532;2022-12-07T18:03:45;4.10;99.90
23081;DHT22;11708;50.570;8.532;2022-12-07T18:06:10;4.10;99.90
23081;DHT22;11708;50.570;8.532;2022-12-07T18:08:39;4.10;99.90
23081;DHT22;11708;50.570;8.532;2022-12-07T18:11:05;4.10;99.90
23081;DHT22;11708;50.570;8.532;2022-12-07T18:13:34;4.10;99.90
23081;DHT22;11708;50.570;8.532;2022-12-07T18:16:01;4.10;99.90